Weather observations for the past three days for
Caldwell - Caldwell Industrial Airport
Imperial (Metric)
Date Time (mdt) Wind (mph) Vis. (mi.) Weather Sky Cond. Temperature (ºF) Relative Humidity Wind Chill (°F) Heat Index (°F) Pressure Precipitation (in)
Air Dwpt 6 hour altimeter (in) sea level (mb) 1 hr 3 hr 6 hr
Max. Min.
02 15:56 N 5 10.00 Fair CLR 78.1 39 25% 78 29.93 1012.5
02 14:56 N 6 10.00 Fair CLR 79 39.9 25% 78 29.96 1013.4
02 13:56 E 7 10.00 Fair CLR 75.9 39 26% 77 29.98 1014.2
02 12:56 Calm 10.00 Fair CLR 72 37 28% 30.01 1015.2
02 11:56 E 6 10.00 Fair CLR 68 36 68 42.1 31% 30.03 1016.0
02 10:56 SE 7 10.00 Fair CLR 63 34 34% 30.04 1016.7
02 09:56 SE 12 10.00 Fair CLR 61 30 31% 30.05 1016.8
02 08:56 N 3 10.00 Fair CLR 54 37 53% 30.04 1016.8
02 07:56 Calm 10.00 Fair CLR 45 39.9 83% 30.04 1016.7
02 06:56 Calm 10.00 Fair CLR 43 37 80% 30.03 1016.2
02 03:56 NE 3 10.00 Fair CLR 46 36 68% 30.02 1015.7
02 02:56 Calm 10.00 Fair CLR 45 36 71% 30.02 1015.8
02 01:56 NE 6 10.00 Fair CLR 46.9 36 66% 45 30.03 1016.0
02 00:56 E 9 10.00 Fair CLR 50 36 59% 47 30.02 1015.9
01 23:56 NE 3 10.00 Fair CLR 55.9 37 75.9 52 49% 30.03 1015.8
01 22:56 NE 6 10.00 Fair CLR 55 37.9 53% 30.02 1016.0
01 21:56 NE 5 10.00 Fair CLR 59 37.9 46% 30.02 1015.9
01 20:56 N 7 10.00 Fair CLR 62.1 39 43% 30.01 1015.6
01 19:56 N 6 10.00 Fair CLR 70 39.9 34% 30 1015.3
01 18:56 NE 8 10.00 Fair CLR 73 36 26% 30.01 1015.7
01 17:56 N 8 10.00 Fair CLR 73.9 33.1 75.9 66.9 22% 30.02 1016.0
01 16:56 Calm 10.00 Fair CLR 73.9 32 21% 30.04 1016.5
01 15:56 E 7 10.00 Fair CLR 73.9 35.1 24% 30.07 1017.5
01 14:56 N 5 10.00 Fair CLR 73.9 32 21% 30.09 1018.3
01 13:56 Calm 10.00 Fair CLR 72 30.9 22% 30.11 1019.0
01 12:56 Calm 10.00 Fair CLR 70 37.9 31% 30.13 1019.8
01 11:56 Vrbl 3 10.00 Fair CLR 66.9 42.1 66.9 41 41% 30.15 1020.2
01 10:56 S 7 10.00 Fair CLR 62.1 39.9 44% 30.16 1020.8
01 09:56 S 5 10.00 Fair CLR 57.9 39 50% 30.17 1021.0
01 08:56 Calm 10.00 Fair CLR 52 39 61% 30.16 1021.0
01 07:56 Calm 10.00 Fair CLR 46.9 41 80% 30.15 1020.5
01 06:56 Calm 10.00 Fair CLR 42.1 37 82% 30.13 1019.9
01 05:56 E 5 10.00 Fair CLR 43 37 55 43 80% 41 30.11 1019.2
01 04:56 S 3 10.00 Fair CLR 45 37.9 77% 30.11 1019.2
01 03:56 Calm 10.00 Fair CLR 45 39 80% 30.1 1018.9
01 02:56 NE 7 10.00 Fair CLR 44.1 37.9 79% 41 30.11 1019.1
01 01:56 NE 6 10.00 Fair CLR 46 37.9 73% 44 30.11 1019.2
01 00:56 SE 7 10.00 Fair CLR 48 37.9 68% 45 30.1 1018.9
30 23:56 Calm 10.00 Fair CLR 55 37 71.1 53.1 51% 30.08 1017.8
30 22:56 W 3 10.00 Fair CLR 55.9 37.9 51% 30.07 1017.6
30 21:56 W 5 10.00 Fair CLR 59 35.1 41% 30.05 1017.2
30 20:56 Calm 10.00 Fair CLR 62.1 37 40% 30.04 1017.0
30 19:56 NW 5 10.00 Fair CLR 66.9 35.1 31% 30.04 1017.1
30 18:56 N 6 10.00 Fair CLR 69.1 35.1 29% 30.05 1017.4
30 17:56 NW 6 10.00 Fair CLR 70 36 72 64 29% 30.05 1017.3
30 16:56 N 10 9.00 Fair CLR 71.1 37 29% 30.07 1017.7
30 15:56 Vrbl 5 10.00 Fair CLR 71.1 34 26% 30.09 1018.4
30 14:56 NW 3 10.00 Fair CLR 70 36 29% 30.11 1019.1
30 13:56 NE 8 10.00 Fair CLR 68 37.9 33% 30.12 1019.5
30 11:56 E 9 10.00 Fair CLR 64 37.9 64 37 38% 30.16 1020.8
30 10:56 SE 9 10.00 Fair CLR 61 37.9 43% 30.17 1021.2
30 09:56 NE 5 10.00 Fair CLR 55.9 39 53% 30.18 1021.8
30 08:56 E 5 10.00 Fair CLR 50 37.9 63% 49 30.19 1022.0
30 07:56 Calm 10.00 Fair CLR 43 39 86% 30.18 1021.9
30 06:56 E 3 10.00 Fair CLR 37.9 35.1 89% 30.16 1021.3
30 05:56 Calm 10.00 Fair CLR 41 36 52 39 82% 30.15 1020.8
30 04:56 Calm 10.00 Fair CLR 43 36 76% 30.15 1020.6
30 03:56 W 7 10.00 Fair CLR 44.1 37 76% 41 30.13 1019.8
30 02:56 W 9 10.00 Fair CLR 45 37 74% 41 30.12 1019.6
30 01:56 W 7 10.00 Fair CLR 48 37 66% 45 30.11 1019.3
30 00:56 W 6 10.00 Fair CLR 48 37.9 68% 46 30.11 1019.2
29 23:56 SW 6 10.00 Fair CLR 52 37 69.1 50 57% 30.1 1019.0
29 22:56 W 6 10.00 Overcast OVC120 55.9 36 47% 30.11 1019.0
29 21:56 W 6 10.00 A Few Clouds FEW120 55.9 36 47% 30.1 1019.0
29 20:56 W 7 10.00 Fair CLR 59 35.1 41% 30.08 1018.5
29 19:56 NW 3 10.00 Fair CLR 63 33.1 33% 30.08 1018.2
29 18:56 NW 5 10.00 Fair CLR 66.9 33.1 29% 30.08 1018.2
29 17:56 N 9 G 18 10.00 Fair CLR 69.1 34 70 62.1 27% 30.08 1018.1
29 16:56 NW 5 10.00 Partly Cloudy SCT110 68 36 31% 30.09 1018.5
Date Time (mdt) Wind (mph) Vis. (mi.) Weather Sky Cond. Air Dwpt Max. Min. Relative Humidity Wind Chill (°F) Heat Index (°F) altimeter (in) sea level (mb) 1 hr 3 hr 6 hr
6 hour
Temperature (ºF) Pressure Precipitation (in)